Time;durP1;ratioP1;P1;durP2;ratioP2;P2;SDS_P1;SDS_P2;PMS_P1;PMS_P2;Temp;Humidity;BMP_temperature;BMP_pressure;BME280_temperature;BME280_humidity;BME280_pressure;Samples;Min_cycle;Max_cycle;Signal;HPM_P1;HPM_P2
2023/05/02 00:01:50;;;;;;;5.68;2.33;;;15.40;99.90;;;;;;7425496;19;19948;-82
2023/05/02 00:04:17;;;;;;;5.40;2.40;;;15.40;99.90;;;;;;7425616;19;19926;-82
2023/05/02 00:06:45;;;;;;;7.22;3.15;;;15.30;99.90;;;;;;7385330;19;20035;-82
2023/05/02 00:09:14;;;;;;;7.60;3.15;;;15.30;99.90;;;;;;7425860;19;19919;-82
2023/05/02 00:11:40;;;;;;;6.68;3.25;;;15.20;99.90;;;;;;7377065;19;19966;-81
2023/05/02 00:14:06;;;;;;;7.28;2.92;;;15.10;99.90;;;;;;7423851;19;20353;-81
2023/05/02 00:16:32;;;;;;;6.68;2.65;;;15.10;99.90;;;;;;7425906;19;19965;-81
2023/05/02 00:18:58;;;;;;;5.55;2.95;;;15.10;99.90;;;;;;7424844;19;19922;-82
2023/05/02 00:21:23;;;;;;;8.60;3.30;;;15.10;99.90;;;;;;7403516;19;19929;-82
2023/05/02 00:23:50;;;;;;;9.07;3.10;;;15.10;99.90;;;;;;7425849;19;19934;-82
2023/05/02 00:26:16;;;;;;;6.45;2.65;;;15.10;99.90;;;;;;7426876;19;19914;-81
2023/05/02 00:28:42;;;;;;;6.13;3.10;;;15.10;99.90;;;;;;7426708;19;19940;-82
2023/05/02 00:31:09;;;;;;;8.30;3.25;;;15.20;99.90;;;;;;7424706;19;19957;-84
2023/05/02 00:33:35;;;;;;;11.75;3.70;;;15.20;99.90;;;;;;7424994;19;19926;-83
2023/05/02 00:36:01;;;;;;;9.90;4.70;;;15.20;99.90;;;;;;7425738;19;19918;-83
2023/05/02 00:38:27;;;;;;;7.88;3.50;;;15.10;99.90;;;;;;7403604;19;19915;-82
2023/05/02 00:40:53;;;;;;;9.82;4.00;;;14.90;99.90;;;;;;7426810;19;19925;-82
2023/05/02 00:43:20;;;;;;;7.32;4.10;;;15.00;99.90;;;;;;7424311;19;19910;-83
2023/05/02 00:45:46;;;;;;;8.90;4.45;;;14.90;99.90;;;;;;7426212;19;19926;-83
2023/05/02 00:48:13;;;;;;;11.90;4.18;;;14.90;99.90;;;;;;7420547;19;19962;-83
2023/05/02 00:50:41;;;;;;;8.80;3.75;;;15.00;99.90;;;;;;7423595;19;19930;-83
2023/05/02 00:53:09;;;;;;;6.88;3.20;;;14.90;99.90;;;;;;7349372;19;19921;-81
2023/05/02 00:55:35;;;;;;;8.75;3.55;;;14.90;99.90;;;;;;7424855;19;19914;-82
2023/05/02 00:58:07;;;;;;;13.80;3.30;;;14.90;99.90;;;;;;7425810;19;19923;-82
2023/05/02 01:00:42;;;;;;;7.65;3.38;;;14.90;99.90;;;;;;7401954;19;19915;-82
2023/05/02 01:03:46;;;;;;;8.98;3.00;;;14.90;99.90;;;;;;7423054;19;19922;-83
2023/05/02 01:06:42;;;;;;;6.80;4.22;;;14.90;99.90;;;;;;7422974;19;19963;-81
2023/05/02 01:09:40;;;;;;;6.40;3.70;;;14.90;99.90;;;;;;7423876;19;19923;-83
2023/05/02 01:12:26;;;;;;;8.45;3.35;;;14.80;99.90;;;;;;7421418;19;19995;-82
2023/05/02 01:14:55;;;;;;;7.85;4.30;;;14.70;99.90;;;;;;7427225;19;19925;-82
2023/05/02 01:17:25;;;;;;;12.73;4.68;;;14.80;99.90;;;;;;7423925;19;19946;-82
2023/05/02 01:20:01;;;;;;;9.70;4.32;;;14.80;99.90;;;;;;7372666;19;19914;-83
2023/05/02 01:22:31;;;;;;;10.77;4.95;;;14.80;99.90;;;;;;7424937;19;19931;-82
2023/05/02 01:25:19;;;;;;;7.72;4.03;;;14.80;99.90;;;;;;7425481;19;19914;-82
2023/05/02 01:28:19;;;;;;;9.70;4.32;;;14.70;99.90;;;;;;7425872;19;20375;-82
2023/05/02 01:30:46;;;;;;;9.45;4.43;;;14.60;99.90;;;;;;7374798;19;19950;-82
2023/05/02 01:33:16;;;;;;;6.28;4.35;;;14.60;99.90;;;;;;7429498;19;19914;-83
2023/05/02 01:35:43;;;;;;;9.75;4.55;;;14.60;99.90;;;;;;7431600;19;19918;-83
2023/05/02 01:38:14;;;;;;;7.30;4.38;;;14.50;99.90;;;;;;7429903;19;19945;-81
2023/05/02 01:40:43;;;;;;;7.13;4.40;;;14.50;99.90;;;;;;7432644;19;19915;-83
2023/05/02 01:43:12;;;;;;;7.15;3.40;;;14.50;99.90;;;;;;7432399;19;19955;-82
2023/05/02 01:45:39;;;;;;;7.28;3.42;;;14.50;99.90;;;;;;7432334;19;19910;-82
2023/05/02 01:48:08;;;;;;;10.55;3.05;;;14.50;99.90;;;;;;7427547;19;20267;-81
2023/05/02 01:50:36;;;;;;;6.82;3.53;;;14.50;99.90;;;;;;7431265;19;19915;-81
2023/05/02 01:53:04;;;;;;;6.68;2.95;;;14.50;99.90;;;;;;7410361;19;19919;-81
2023/05/02 01:55:35;;;;;;;9.15;3.38;;;14.40;99.90;;;;;;7430227;19;19989;-81
2023/05/02 01:58:05;;;;;;;5.97;2.92;;;14.50;99.90;;;;;;7431820;19;19926;-81
2023/05/02 02:00:33;;;;;;;6.43;2.97;;;14.50;99.90;;;;;;7429918;19;19915;-82
2023/05/02 02:03:00;;;;;;;4.43;2.50;;;14.40;99.90;;;;;;7432949;19;19923;-81
2023/05/02 02:05:27;;;;;;;6.57;2.92;;;14.40;99.90;;;;;;7429488;19;20034;-82
2023/05/02 02:07:53;;;;;;;5.45;3.03;;;14.30;99.90;;;;;;7430376;19;19922;-81
2023/05/02 02:10:19;;;;;;;7.95;3.20;;;14.20;99.90;;;;;;7427150;19;19934;-82
2023/05/02 02:12:52;;;;;;;6.82;3.00;;;14.20;99.90;;;;;;7405794;19;19919;-83
2023/05/02 02:15:27;;;;;;;7.07;3.17;;;14.10;99.90;;;;;;7407161;19;19911;-82
2023/05/02 02:18:12;;;;;;;6.70;3.60;;;14.10;99.90;;;;;;7429756;19;19939;-82
2023/05/02 02:20:39;;;;;;;;;;;14.20;99.90;;;;;;7433598;19;19917;-82
2023/05/02 02:23:07;;;;;;;6.30;3.90;;;14.30;99.90;;;;;;7430924;19;19922;-82
2023/05/02 02:25:34;;;;;;;8.05;4.38;;;14.40;99.90;;;;;;7431541;19;19915;-82
2023/05/02 02:28:02;;;;;;;9.30;4.05;;;14.30;99.90;;;;;;7428584;19;19929;-82
2023/05/02 02:30:28;;;;;;;10.13;4.53;;;14.20;99.90;;;;;;7427349;19;19934;-82
2023/05/02 02:32:53;;;;;;;8.98;3.85;;;14.20;99.90;;;;;;7429890;19;19908;-82
2023/05/02 02:35:20;;;;;;;7.90;4.03;;;14.20;99.90;;;;;;7428600;19;19942;-82
2023/05/02 02:38:10;;;;;;;10.38;4.20;;;14.20;99.90;;;;;;7428668;19;19918;-82
2023/05/02 02:40:54;;;;;;;9.25;4.10;;;14.10;99.90;;;;;;7386762;19;20403;-83
2023/05/02 02:43:35;;;;;;;7.63;4.38;;;14.10;99.90;;;;;;7406082;19;19918;-82
2023/05/02 02:46:16;;;;;;;9.07;4.20;;;14.10;99.90;;;;;;7430329;19;19929;-83
2023/05/02 02:49:16;;;;;;;9.43;4.28;;;14.20;99.90;;;;;;7426678;19;19923;-82
2023/05/02 02:51:52;;;;;;;7.50;4.22;;;14.20;99.90;;;;;;7426371;19;20615;-82
2023/05/02 02:54:29;;;;;;;8.10;3.53;;;14.20;99.90;;;;;;7424098;19;19911;-83
2023/05/02 02:57:29;;;;;;;9.85;3.90;;;14.10;99.90;;;;;;7398455;19;19929;-83
2023/05/02 03:00:10;;;;;;;9.25;4.13;;;14.00;99.90;;;;;;7423866;19;19914;-82
2023/05/02 03:02:38;;;;;;;6.82;4.03;;;14.00;99.90;;;;;;7428839;19;19955;-82
2023/05/02 03:05:06;;;;;;;9.55;5.60;;;13.90;99.90;;;;;;7429743;19;19915;-83
2023/05/02 03:07:33;;;;;;;8.65;4.43;;;14.00;99.90;;;;;;7430873;19;19925;-81
2023/05/02 03:10:04;;;;;;;8.80;4.35;;;14.00;99.90;;;;;;7429541;19;19922;-82
2023/05/02 03:12:31;;;;;;;7.50;3.53;;;14.00;99.90;;;;;;7429543;19;19922;-81
2023/05/02 03:15:04;;;;;;;9.07;4.05;;;14.00;99.90;;;;;;7428399;19;19925;-82
2023/05/02 03:17:31;;;;;;;7.57;3.97;;;14.00;99.90;;;;;;7425216;19;19930;-81
2023/05/02 03:19:56;;;;;;;11.43;4.70;;;14.10;99.90;;;;;;7428112;19;19939;-82
2023/05/02 03:22:22;;;;;;;8.30;3.90;;;14.10;99.90;;;;;;7427889;19;19943;-82
2023/05/02 03:24:49;;;;;;;7.55;3.90;;;14.10;99.90;;;;;;7430028;19;19911;-82
2023/05/02 03:27:15;;;;;;;;;;;14.20;99.90;;;;;;7429947;19;19911;-83
2023/05/02 03:29:40;;;;;;;11.30;4.28;;;14.20;99.90;;;;;;7427488;19;19911;-82
2023/05/02 03:32:06;;;;;;;6.95;2.97;;;14.10;99.90;;;;;;7425401;19;19917;-83
2023/05/02 03:34:32;;;;;;;6.30;3.85;;;14.10;99.90;;;;;;7427950;19;19922;-82
2023/05/02 03:36:58;;;;;;;9.90;3.97;;;14.10;99.90;;;;;;7426500;19;19903;-83
2023/05/02 03:39:24;;;;;;;8.93;4.18;;;14.10;99.90;;;;;;7428673;19;19932;-83
2023/05/02 03:41:51;;;;;;;8.48;3.95;;;14.10;99.90;;;;;;7427372;19;19986;-82
2023/05/02 03:44:17;;;;;;;6.55;3.72;;;14.10;99.90;;;;;;7427539;19;19919;-82
2023/05/02 03:46:47;;;;;;;6.50;3.80;;;14.20;99.90;;;;;;7428548;19;19911;-82
2023/05/02 03:49:12;;;;;;;9.85;4.22;;;14.10;99.90;;;;;;7428626;19;19949;-82
2023/05/02 03:51:38;;;;;;;7.95;3.70;;;14.10;99.90;;;;;;7427943;19;19915;-82
2023/05/02 03:54:04;;;;;;;7.95;3.95;;;14.00;99.90;;;;;;7423317;19;19934;-82
2023/05/02 03:56:30;;;;;;;7.07;3.08;;;14.00;99.90;;;;;;7428728;19;19914;-82
2023/05/02 03:58:56;;;;;;;6.78;3.67;;;14.00;99.90;;;;;;7426517;19;19922;-81
2023/05/02 04:01:22;;;;;;;6.70;3.30;;;14.10;99.90;;;;;;7424914;19;19935;-82
2023/05/02 04:03:52;;;;;;;10.07;4.18;;;14.00;99.90;;;;;;7428478;19;20440;-83
2023/05/02 04:06:20;;;;;;;7.07;3.78;;;14.10;99.90;;;;;;7430564;19;19926;-82
2023/05/02 04:08:46;;;;;;;10.48;3.45;;;14.10;99.90;;;;;;7429053;19;19917;-82
2023/05/02 04:11:13;;;;;;;5.90;3.20;;;14.10;99.90;;;;;;7429406;19;19911;-81
2023/05/02 04:13:39;;;;;;;6.97;3.88;;;14.00;99.90;;;;;;7429764;19;19963;-82
2023/05/02 04:16:05;;;;;;;6.40;3.30;;;14.00;99.90;;;;;;7374932;19;19915;-81
2023/05/02 04:18:31;;;;;;;6.35;3.40;;;13.90;99.90;;;;;;7428636;19;19942;-82
2023/05/02 04:20:57;;;;;;;8.90;3.13;;;13.90;99.90;;;;;;7427682;19;19925;-83
2023/05/02 04:23:24;;;;;;;5.78;3.63;;;13.90;99.90;;;;;;7423535;19;19934;-83
2023/05/02 04:25:51;;;;;;;6.10;3.83;;;13.90;99.90;;;;;;7428515;19;19934;-83
2023/05/02 04:28:17;;;;;;;6.07;3.05;;;13.90;99.90;;;;;;7424419;19;19919;-83
2023/05/02 04:30:43;;;;;;;8.32;3.53;;;13.80;99.90;;;;;;7427994;19;19919;-83
2023/05/02 04:33:10;;;;;;;6.85;3.22;;;13.80;99.90;;;;;;7424902;19;19947;-83
2023/05/02 04:35:38;;;;;;;;;;;13.80;99.90;;;;;;7396763;19;19927;-81
2023/05/02 04:38:05;;;;;;;8.70;3.40;;;13.90;99.90;;;;;;7428648;19;19918;-82
2023/05/02 04:40:31;;;;;;;;;;;13.90;99.90;;;;;;7428143;19;19922;-83
2023/05/02 04:42:58;;;;;;;7.47;3.83;;;14.00;99.90;;;;;;7429927;19;19918;-83
2023/05/02 04:45:24;;;;;;;;;;;13.90;99.90;;;;;;7427028;19;19983;-82
2023/05/02 04:47:51;;;;;;;6.50;3.67;;;13.90;99.90;;;;;;7426856;19;19942;-84
2023/05/02 04:50:17;;;;;;;7.13;3.38;;;13.90;99.90;;;;;;7423630;19;19951;-82
2023/05/02 04:52:43;;;;;;;8.65;4.03;;;13.90;99.90;;;;;;7427434;19;19926;-82
2023/05/02 04:55:08;;;;;;;7.40;3.28;;;13.90;99.90;;;;;;7403647;19;20008;-82
2023/05/02 04:57:34;;;;;;;6.55;3.47;;;14.00;99.90;;;;;;7373900;19;19918;-83
2023/05/02 05:00:00;;;;;;;7.90;3.92;;;14.10;99.90;;;;;;7429668;19;19939;-82
2023/05/02 05:02:26;;;;;;;9.65;3.85;;;14.10;99.90;;;;;;7401460;19;19922;-82
2023/05/02 05:04:52;;;;;;;6.35;3.80;;;14.10;99.90;;;;;;7382254;19;19921;-82
2023/05/02 05:07:18;;;;;;;7.43;4.15;;;14.20;99.90;;;;;;7426637;19;19923;-82
2023/05/02 05:09:44;;;;;;;8.10;4.35;;;14.20;99.90;;;;;;7427171;19;19915;-81
2023/05/02 05:12:09;;;;;;;8.85;4.63;;;14.30;99.90;;;;;;7425957;19;19958;-82
2023/05/02 05:14:35;;;;;;;9.30;5.10;;;14.30;99.90;;;;;;7427252;19;19932;-82
2023/05/02 05:17:02;;;;;;;8.88;5.18;;;14.40;99.90;;;;;;7407061;19;20334;-82
2023/05/02 05:19:28;;;;;;;9.18;5.40;;;14.30;99.90;;;;;;7405991;19;19914;-82
2023/05/02 05:21:54;;;;;;;10.25;5.65;;;14.30;99.90;;;;;;7397359;19;19918;-84
2023/05/02 05:24:21;;;;;;;8.68;5.70;;;14.20;99.90;;;;;;7425741;19;19919;-82
2023/05/02 05:26:51;;;;;;;8.60;5.60;;;14.20;99.90;;;;;;7427393;19;19933;-84
2023/05/02 05:29:34;;;;;;;11.02;5.90;;;14.20;99.90;;;;;;7378406;19;19927;-81
2023/05/02 05:32:02;;;;;;;10.40;5.95;;;14.10;99.90;;;;;;7426192;19;19915;-82
2023/05/02 05:34:28;;;;;;;9.20;5.88;;;14.10;99.90;;;;;;7426865;19;19926;-83
2023/05/02 05:36:55;;;;;;;11.55;5.75;;;14.10;99.90;;;;;;7421540;19;19922;-82
2023/05/02 05:39:22;;;;;;;13.00;7.55;;;14.10;99.90;;;;;;7427034;19;19919;-83
2023/05/02 05:41:48;;;;;;;10.13;6.07;;;14.10;99.90;;;;;;7425217;19;19986;-82
2023/05/02 05:44:14;;;;;;;12.65;5.60;;;14.20;99.90;;;;;;7421810;19;19910;-83
2023/05/02 05:46:40;;;;;;;9.52;5.47;;;14.20;99.90;;;;;;7423846;19;19918;-83
2023/05/02 05:49:07;;;;;;;9.70;5.88;;;14.30;99.90;;;;;;7420850;19;19999;-82
2023/05/02 05:51:34;;;;;;;8.50;4.85;;;14.40;99.90;;;;;;7423273;19;19959;-82
2023/05/02 05:54:01;;;;;;;10.25;5.30;;;14.50;99.90;;;;;;7423805;19;19943;-84
2023/05/02 05:56:26;;;;;;;8.77;5.32;;;14.60;99.90;;;;;;7402570;19;19907;-84
2023/05/02 05:58:54;;;;;;;7.70;4.65;;;14.70;99.90;;;;;;7423258;19;19942;-84
2023/05/02 06:01:19;;;;;;;9.27;4.50;;;14.80;99.90;;;;;;7423919;19;19915;-84
2023/05/02 06:03:45;;;;;;;9.18;4.88;;;15.00;99.90;;;;;;7403842;19;19922;-83
2023/05/02 06:06:11;;;;;;;9.82;4.22;;;15.10;99.90;;;;;;7423569;19;19914;-83
2023/05/02 06:08:37;;;;;;;8.52;4.75;;;15.30;99.90;;;;;;7426407;19;19915;-83
2023/05/02 06:11:03;;;;;;;7.80;5.00;;;15.40;99.90;;;;;;7425611;19;19939;-83
2023/05/02 06:13:29;;;;;;;9.57;5.95;;;15.50;99.90;;;;;;7426192;19;19926;-83
2023/05/02 06:16:02;;;;;;;9.18;5.68;;;15.60;99.90;;;;;;7426085;19;20471;-84
2023/05/02 06:18:28;;;;;;;10.38;6.30;;;15.80;99.90;;;;;;7356982;19;20296;-83
2023/05/02 06:20:54;;;;;;;9.40;5.85;;;15.90;99.90;;;;;;7431037;19;19914;-83
2023/05/02 06:23:21;;;;;;;12.05;7.75;;;16.00;99.90;;;;;;7428635;19;19927;-83
2023/05/02 06:25:46;;;;;;;15.93;7.53;;;15.90;99.90;;;;;;7431743;19;19917;-83
2023/05/02 06:29:05;;;;;;;10.85;7.50;;;16.00;99.90;;;;;;7397792;19;19911;-83
2023/05/02 06:31:04;;;;;;;12.18;6.93;;;16.10;99.90;;;;;;7386069;19;19948;-83
2023/05/02 06:33:32;;;;;;;13.52;6.97;;;16.20;99.90;;;;;;7427229;19;19927;-83
2023/05/02 06:35:58;;;;;;;;;;;16.30;99.90;;;;;;7429563;19;19923;-72
2023/05/02 06:38:24;;;;;;;13.18;7.43;;;16.40;99.90;;;;;;7402339;19;19929;-74
2023/05/02 06:40:50;;;;;;;13.57;7.07;;;16.60;99.90;;;;;;7402026;19;20897;-74
2023/05/02 06:43:16;;;;;;;11.85;6.10;;;16.80;99.90;;;;;;7401927;19;20406;-73
2023/05/02 06:45:43;;;;;;;12.82;6.72;;;16.80;99.90;;;;;;7405653;19;20295;-74
2023/05/02 06:48:09;;;;;;;16.40;7.95;;;16.90;99.90;;;;;;7401588;19;19929;-74
2023/05/02 06:50:35;;;;;;;14.18;7.93;;;16.90;99.90;;;;;;7401995;19;19921;-74
2023/05/02 06:53:01;;;;;;;13.73;7.65;;;16.90;99.90;;;;;;7402730;19;19962;-75
2023/05/02 06:55:27;;;;;;;13.68;6.57;;;17.00;99.90;;;;;;7397395;19;20279;-74
2023/05/02 06:57:53;;;;;;;14.25;6.78;;;17.10;99.90;;;;;;7403597;19;19915;-75
2023/05/02 07:00:20;;;;;;;13.95;6.22;;;17.30;99.90;;;;;;7398685;19;19922;-75
2023/05/02 07:02:47;;;;;;;12.23;6.05;;;17.50;99.90;;;;;;7404621;19;19914;-74
2023/05/02 07:05:16;;;;;;;16.05;6.38;;;17.50;99.90;;;;;;7399587;19;19923;-75
2023/05/02 07:07:43;;;;;;;11.50;6.53;;;17.60;99.90;;;;;;7403808;19;19923;-73
2023/05/02 07:10:10;;;;;;;9.00;6.20;;;17.60;99.90;;;;;;7402555;19;19987;-74
2023/05/02 07:12:37;;;;;;;13.50;6.22;;;17.80;99.90;;;;;;7395727;19;19939;-74
2023/05/02 07:15:04;;;;;;;12.02;5.93;;;17.90;99.60;;;;;;7396053;19;20017;-74
2023/05/02 07:17:31;;;;;;;12.50;6.97;;;18.00;99.40;;;;;;7404335;19;19930;-74
2023/05/02 07:19:56;;;;;;;16.42;7.95;;;18.00;99.00;;;;;;7400581;19;20342;-73
2023/05/02 07:22:22;;;;;;;12.60;7.10;;;18.00;99.20;;;;;;7396672;19;19942;-74
2023/05/02 07:24:48;;;;;;;11.57;6.68;;;18.10;99.20;;;;;;7402237;19;19947;-74
2023/05/02 07:27:14;;;;;;;15.20;7.32;;;18.10;98.90;;;;;;7393014;19;19927;-74
2023/05/02 07:29:41;;;;;;;13.27;6.07;;;18.10;99.00;;;;;;7399373;19;19915;-74
2023/05/02 07:32:07;;;;;;;11.02;6.10;;;18.10;98.90;;;;;;7395429;19;19962;-75
2023/05/02 07:34:32;;;;;;;11.25;5.60;;;18.20;98.80;;;;;;7400143;19;19923;-74
2023/05/02 07:36:58;;;;;;;11.48;5.53;;;18.40;98.50;;;;;;7394921;19;20339;-75
2023/05/02 07:39:24;;;;;;;10.90;5.70;;;18.50;98.00;;;;;;7345610;19;19929;-74
2023/05/02 07:41:53;;;;;;;10.40;5.90;;;18.70;97.80;;;;;;7403544;19;20255;-73
2023/05/02 07:44:23;;;;;;;11.82;6.03;;;18.90;97.10;;;;;;7397203;19;19918;-74
2023/05/02 07:46:49;;;;;;;9.45;4.70;;;18.80;96.90;;;;;;7400259;19;20328;-74
2023/05/02 07:49:15;;;;;;;11.70;4.75;;;18.80;96.80;;;;;;7398153;19;19932;-74
2023/05/02 07:51:41;;;;;;;12.93;4.15;;;18.80;96.80;;;;;;7345447;19;20019;-75
2023/05/02 07:54:17;;;;;;;9.50;3.92;;;18.70;96.10;;;;;;7392219;19;20264;-75
2023/05/02 07:56:43;;;;;;;9.63;4.13;;;18.80;96.10;;;;;;7377815;19;20339;-74
2023/05/02 07:59:10;;;;;;;8.57;4.38;;;18.70;96.00;;;;;;7392361;19;19926;-74
2023/05/02 08:01:36;;;;;;;10.98;4.18;;;18.60;95.90;;;;;;7396275;19;19914;-73
2023/05/02 08:04:03;;;;;;;8.48;4.03;;;18.40;96.20;;;;;;7400655;19;19926;-73
2023/05/02 08:06:28;;;;;;;;;;;18.60;95.60;;;;;;7404521;19;20345;-74
2023/05/02 08:08:56;;;;;;;7.63;2.63;;;18.80;94.60;;;;;;7403866;19;19926;-75
2023/05/02 08:11:24;;;;;;;6.72;2.60;;;19.00;93.70;;;;;;7401443;19;20073;-74
2023/05/02 08:13:53;;;;;;;14.02;5.00;;;19.00;93.40;;;;;;7404089;19;19925;-74
2023/05/02 08:16:19;;;;;;;7.55;3.28;;;19.10;93.20;;;;;;7403782;19;19921;-74
2023/05/02 08:18:45;;;;;;;12.63;4.00;;;19.20;93.10;;;;;;7404658;19;19922;-74
2023/05/02 08:21:11;;;;;;;8.95;3.40;;;19.40;92.80;;;;;;7392769;19;19918;-74
2023/05/02 08:23:40;;;;;;;7.88;3.55;;;19.60;92.50;;;;;;7400689;19;23643;-74
2023/05/02 08:26:06;;;;;;;9.50;4.07;;;19.70;91.90;;;;;;7399835;19;20505;-74
2023/05/02 08:28:32;;;;;;;9.68;4.10;;;19.80;91.70;;;;;;7403946;19;19935;-73
2023/05/02 08:30:58;;;;;;;13.55;4.65;;;19.70;91.90;;;;;;7404027;19;19946;-74
2023/05/02 08:33:23;;;;;;;9.13;4.22;;;19.90;91.80;;;;;;7400613;19;19914;-74
2023/05/02 08:35:49;;;;;;;8.85;4.38;;;20.70;91.20;;;;;;7400830;19;19934;-74
2023/05/02 08:38:15;;;;;;;6.68;3.45;;;22.60;86.80;;;;;;7398385;19;19910;-74
2023/05/02 08:40:41;;;;;;;10.05;4.38;;;23.50;81.10;;;;;;7403475;19;19910;-74
2023/05/02 08:43:06;;;;;;;8.75;3.25;;;23.90;78.90;;;;;;7400697;19;19937;-73
2023/05/02 08:45:40;;;;;;;8.02;2.78;;;24.60;76.20;;;;;;7402792;19;19932;-74
2023/05/02 08:48:09;;;;;;;5.97;2.55;;;24.80;75.20;;;;;;7385044;19;20339;-74
2023/05/02 08:50:40;;;;;;;6.55;2.38;;;24.90;73.60;;;;;;7403122;19;19926;-74
2023/05/02 08:53:10;;;;;;;8.98;2.83;;;23.50;74.80;;;;;;7397843;19;20016;-74
2023/05/02 08:55:41;;;;;;;6.45;2.58;;;23.00;77.20;;;;;;7400115;19;19907;-75
2023/05/02 08:58:08;;;;;;;9.65;3.13;;;24.00;75.70;;;;;;7399702;19;19934;-75
2023/05/02 09:00:41;;;;;;;6.03;2.28;;;24.90;72.30;;;;;;7401590;19;19923;-74
2023/05/02 09:03:30;;;;;;;6.40;2.45;;;25.20;70.70;;;;;;7392600;19;19923;-75
2023/05/02 09:06:04;;;;;;;5.60;2.53;;;25.90;70.20;;;;;;7399273;19;19938;-75
2023/05/02 09:08:30;;;;;;;6.55;2.33;;;26.70;68.40;;;;;;7402280;19;19915;-75
2023/05/02 09:10:56;;;;;;;6.25;2.55;;;27.20;66.50;;;;;;7400953;19;20230;-74
2023/05/02 09:13:35;;;;;;;5.90;2.97;;;27.60;65.80;;;;;;7400261;19;19941;-75
2023/05/02 09:16:11;;;;;;;5.22;2.65;;;27.80;64.80;;;;;;7399771;19;19929;-74
2023/05/02 09:18:46;;;;;;;6.65;3.00;;;26.70;63.60;;;;;;7400551;19;19922;-75
2023/05/02 09:21:17;;;;;;;6.00;2.55;;;26.30;65.60;;;;;;7398624;19;19922;-75
2023/05/02 09:23:45;;;;;;;6.50;2.63;;;26.10;66.70;;;;;;7401870;19;19918;-75
2023/05/02 09:26:22;;;;;;;7.97;2.33;;;26.30;66.30;;;;;;7399267;19;20011;-74
2023/05/02 09:28:53;;;;;;;7.32;2.60;;;26.10;66.20;;;;;;7401908;19;20335;-74
2023/05/02 09:31:21;;;;;;;5.38;3.60;;;25.60;67.50;;;;;;7399281;19;20271;-75
2023/05/02 09:33:47;;;;;;;7.30;4.22;;;25.60;67.50;;;;;;7399926;19;20279;-74
2023/05/02 09:36:15;;;;;;;6.35;2.47;;;26.70;65.70;;;;;;7394103;19;19918;-75
2023/05/02 09:38:42;;;;;;;7.20;3.38;;;27.50;63.40;;;;;;7345707;19;20314;-74
2023/05/02 09:41:09;;;;;;;4.93;2.03;;;28.20;61.70;;;;;;7400120;19;19919;-74
2023/05/02 09:43:36;;;;;;;5.68;2.55;;;27.90;60.00;;;;;;7348732;19;19914;-74
2023/05/02 09:46:07;;;;;;;7.57;2.55;;;26.90;62.20;;;;;;7398337;19;19926;-75
2023/05/02 09:48:50;;;;;;;7.22;2.47;;;26.90;62.00;;;;;;7397546;19;19914;-75
2023/05/02 09:51:17;;;;;;;6.45;2.13;;;27.40;61.60;;;;;;7400867;19;19935;-75
2023/05/02 09:53:45;;;;;;;6.22;3.17;;;26.60;62.30;;;;;;7404874;19;20268;-74
2023/05/02 09:56:11;;;;;;;5.00;2.20;;;27.10;61.80;;;;;;7404832;19;20304;-74
2023/05/02 09:58:37;;;;;;;7.25;2.45;;;27.40;60.90;;;;;;7384958;19;19966;-75
2023/05/02 10:01:03;;;;;;;7.75;2.85;;;27.10;61.00;;;;;;7403177;19;19934;-74
2023/05/02 10:03:30;;;;;;;6.15;2.42;;;27.00;60.50;;;;;;7406273;19;19981;-75
2023/05/02 10:05:58;;;;;;;5.50;2.58;;;26.90;60.10;;;;;;7406714;19;19938;-75
2023/05/02 10:08:26;;;;;;;4.85;2.63;;;26.80;60.90;;;;;;7352312;19;19923;-75
2023/05/02 10:10:57;;;;;;;6.22;2.90;;;27.30;59.90;;;;;;7402434;19;19946;-74
2023/05/02 10:13:26;;;;;;;8.05;2.60;;;26.80;60.20;;;;;;7404975;19;19952;-74
2023/05/02 10:16:05;;;;;;;5.40;2.75;;;27.10;61.30;;;;;;7405845;19;20364;-74
2023/05/02 10:18:43;;;;;;;8.50;2.88;;;26.60;61.20;;;;;;7403875;19;20351;-74
2023/05/02 10:21:16;;;;;;;7.60;3.33;;;26.20;61.70;;;;;;7405997;19;19919;-74
2023/05/02 10:23:45;;;;;;;6.80;2.72;;;26.60;61.20;;;;;;7405765;19;19923;-75
2023/05/02 10:26:14;;;;;;;5.78;3.10;;;25.40;62.20;;;;;;7405223;19;19930;-74
2023/05/02 10:28:41;;;;;;;6.70;3.00;;;25.10;62.60;;;;;;7405635;19;19911;-74
2023/05/02 10:31:12;;;;;;;6.50;3.00;;;24.40;64.90;;;;;;7404438;19;20007;-75
2023/05/02 10:33:39;;;;;;;5.93;3.28;;;23.80;65.00;;;;;;7397176;19;20286;-74
2023/05/02 10:36:08;;;;;;;5.45;2.17;;;23.70;65.80;;;;;;7396058;19;19914;-75
2023/05/02 10:38:35;;;;;;;6.20;2.78;;;23.50;66.60;;;;;;7404612;19;19933;-74
2023/05/02 10:41:06;;;;;;;4.97;2.13;;;24.20;66.40;;;;;;7396006;19;19922;-73
2023/05/02 10:43:35;;;;;;;5.10;2.20;;;23.90;66.70;;;;;;7389779;19;19998;-74
2023/05/02 10:46:04;;;;;;;6.47;2.40;;;24.60;65.80;;;;;;7395389;19;19917;-76
2023/05/02 10:48:30;;;;;;;7.28;2.50;;;23.70;65.90;;;;;;7326456;19;19922;-74
2023/05/02 10:51:00;;;;;;;4.97;2.60;;;23.60;66.90;;;;;;7399102;19;19923;-76
2023/05/02 10:53:35;;;;;;;5.25;2.65;;;23.80;66.30;;;;;;7399940;19;19919;-73
2023/05/02 10:56:17;;;;;;;6.45;2.58;;;23.70;66.00;;;;;;7405975;19;19930;-75
2023/05/02 10:58:44;;;;;;;6.93;2.92;;;24.00;66.20;;;;;;7398202;19;20008;-73
2023/05/02 11:01:29;;;;;;;7.00;3.35;;;23.10;67.40;;;;;;7363923;19;19915;-74
2023/05/02 11:04:00;;;;;;;9.88;3.08;;;23.30;68.10;;;;;;7400093;19;19919;-73
2023/05/02 11:06:27;;;;;;;7.72;2.72;;;24.20;66.30;;;;;;7404639;19;19935;-74
2023/05/02 11:09:17;;;;;;;5.78;2.50;;;24.30;65.10;;;;;;7399740;19;19938;-73
2023/05/02 11:11:44;;;;;;;7.03;3.03;;;24.50;65.50;;;;;;7399020;19;19915;-75
2023/05/02 11:14:11;;;;;;;7.35;2.58;;;24.70;64.10;;;;;;7396970;19;20330;-72
2023/05/02 11:16:56;;;;;;;8.18;2.60;;;25.20;63.40;;;;;;7397562;19;19914;-74
2023/05/02 11:19:21;;;;;;;;;;;24.00;65.30;;;;;;7400200;19;20731;-76
2023/05/02 11:21:48;;;;;;;7.65;2.75;;;24.90;65.30;;;;;;7402405;19;19915;-74
2023/05/02 11:24:46;;;;;;;6.45;2.63;;;25.10;64.40;;;;;;7396723;19;19919;-74
2023/05/02 11:27:36;;;;;;;8.50;2.90;;;24.50;64.50;;;;;;7402130;19;19923;-75
2023/05/02 11:30:05;;;;;;;6.35;2.70;;;25.10;63.10;;;;;;7400376;19;19956;-75
2023/05/02 11:32:52;;;;;;;5.78;1.95;;;24.70;63.40;;;;;;7397975;19;20779;-74
2023/05/02 11:35:26;;;;;;;6.10;2.30;;;25.10;63.00;;;;;;7399701;19;19914;-74
2023/05/02 11:37:56;;;;;;;5.28;2.45;;;24.00;65.00;;;;;;7400517;19;19918;-75
2023/05/02 11:40:23;;;;;;;6.95;2.67;;;23.00;67.00;;;;;;7388142;19;19933;-77
2023/05/02 11:42:50;;;;;;;7.47;2.90;;;23.60;66.80;;;;;;7352892;19;19942;-76
2023/05/02 11:45:17;;;;;;;8.15;2.53;;;24.60;64.80;;;;;;7405807;19;19940;-76
2023/05/02 11:47:47;;;;;;;7.72;2.53;;;24.80;64.20;;;;;;7405730;19;19922;-76
2023/05/02 11:50:13;;;;;;;5.88;2.40;;;25.10;63.80;;;;;;7406021;19;19922;-75
2023/05/02 11:52:41;;;;;;;5.35;2.13;;;24.90;64.50;;;;;;7404831;19;19957;-77
2023/05/02 11:55:11;;;;;;;6.82;2.70;;;23.60;65.20;;;;;;7402842;19;20444;-76
2023/05/02 11:57:39;;;;;;;6.05;2.45;;;23.70;65.80;;;;;;7400457;19;19922;-76
2023/05/02 12:00:07;;;;;;;5.65;2.22;;;25.10;65.30;;;;;;7403946;19;19914;-75
2023/05/02 12:02:36;;;;;;;6.10;2.65;;;24.90;65.30;;;;;;7403022;19;19914;-76
2023/05/02 12:05:06;;;;;;;4.82;2.00;;;25.30;65.40;;;;;;7404416;19;19914;-76
2023/05/02 12:07:36;;;;;;;7.07;1.83;;;23.70;67.70;;;;;;7402277;19;19918;-76
2023/05/02 12:10:03;;;;;;;10.18;2.38;;;24.30;66.00;;;;;;7407697;19;19914;-75
2023/05/02 12:12:30;;;;;;;4.20;2.63;;;24.60;66.90;;;;;;7403472;19;19993;-76
2023/05/02 12:14:56;;;;;;;5.32;3.25;;;24.60;65.90;;;;;;7404645;19;20267;-76
2023/05/02 12:17:22;;;;;;;4.85;2.00;;;25.10;66.30;;;;;;7406400;19;19935;-76
2023/05/02 12:19:49;;;;;;;9.07;2.33;;;25.20;66.10;;;;;;7405167;19;19926;-76
2023/05/02 12:22:15;;;;;;;6.00;2.40;;;25.00;66.40;;;;;;7404053;19;19994;-75
2023/05/02 12:24:42;;;;;;;8.38;2.75;;;25.40;65.90;;;;;;7402718;19;19934;-76
2023/05/02 12:27:09;;;;;;;5.50;2.45;;;25.30;66.60;;;;;;7401631;19;19939;-76
2023/05/02 12:29:39;;;;;;;5.40;2.35;;;24.60;66.90;;;;;;7405542;19;19919;-77
2023/05/02 12:32:05;;;;;;;4.35;1.80;;;24.60;68.30;;;;;;7360006;19;19914;-75
2023/05/02 12:34:35;;;;;;;5.85;2.00;;;23.80;67.70;;;;;;7391145;19;19942;-76
2023/05/02 12:37:02;;;;;;;4.03;2.50;;;24.30;67.60;;;;;;7395641;19;19919;-76
2023/05/02 12:39:39;;;;;;;6.10;2.38;;;24.90;67.20;;;;;;7396675;19;19970;-76
2023/05/02 12:42:11;;;;;;;5.03;2.17;;;25.40;66.40;;;;;;7376590;19;19978;-76
2023/05/02 12:44:41;;;;;;;4.75;2.72;;;25.60;65.90;;;;;;7401762;19;19997;-76
2023/05/02 12:47:10;;;;;;;7.00;2.85;;;25.30;66.70;;;;;;7389854;19;19914;-76
2023/05/02 12:49:53;;;;;;;5.22;2.15;;;24.70;66.10;;;;;;7401530;19;20338;-75
2023/05/02 12:52:48;;;;;;;4.60;2.38;;;23.60;67.00;;;;;;7399499;19;19930;-74
2023/05/02 12:55:26;;;;;;;4.30;1.85;;;23.90;67.30;;;;;;7394461;19;19934;-73
2023/05/02 12:58:05;;;;;;;6.43;2.85;;;24.20;67.80;;;;;;7395762;19;19974;-74
2023/05/02 13:00:33;;;;;;;4.63;2.05;;;23.80;67.70;;;;;;7393437;19;20029;-74